sensor_id;sensor_type;location;lat;lon;timestamp;pressure;altitude;pressure_sealevel;temperature;humidity
39267;BME280;24967;51.154;13.812;2023-03-14T00:00:48;97459.53;;;12.07;99.18
39267;BME280;24967;51.154;13.812;2023-03-14T00:03:14;97442.88;;;12.19;97.68
39267;BME280;24967;51.154;13.812;2023-03-14T00:05:41;97433.25;;;12.18;97.52
39267;BME280;24967;51.154;13.812;2023-03-14T00:08:07;97434.56;;;12.40;96.50
39267;BME280;24967;51.154;13.812;2023-03-14T00:10:35;97425.63;;;12.28;95.79
39267;BME280;24967;51.154;13.812;2023-03-14T00:13:04;97416.84;;;12.21;96.47
39267;BME280;24967;51.154;13.812;2023-03-14T00:15:32;97420.47;;;12.33;95.71
39267;BME280;24967;51.154;13.812;2023-03-14T00:17:58;97408.44;;;12.24;95.25
39267;BME280;24967;51.154;13.812;2023-03-14T00:20:25;97388.59;;;12.13;95.80
39267;BME280;24967;51.154;13.812;2023-03-14T00:22:51;97387.75;;;12.26;95.89
39267;BME280;24967;51.154;13.812;2023-03-14T00:25:18;97376.47;;;12.24;95.74
39267;BME280;24967;51.154;13.812;2023-03-14T00:27:45;97372.84;;;12.11;95.99
39267;BME280;24967;51.154;13.812;2023-03-14T00:30:13;97364.81;;;12.18;96.05
39267;BME280;24967;51.154;13.812;2023-03-14T00:32:39;97357.59;;;12.25;95.15
39267;BME280;24967;51.154;13.812;2023-03-14T00:35:06;97384.13;;;12.13;95.28
39267;BME280;24967;51.154;13.812;2023-03-14T00:37:33;97378.63;;;12.02;96.96
39267;BME280;24967;51.154;13.812;2023-03-14T00:39:59;97379.03;;;12.05;96.40
39267;BME280;24967;51.154;13.812;2023-03-14T00:42:26;97374.75;;;11.98;96.81
39267;BME280;24967;51.154;13.812;2023-03-14T00:44:52;97386.75;;;12.20;95.42
39267;BME280;24967;51.154;13.812;2023-03-14T00:47:21;97383.94;;;12.08;95.19
39267;BME280;24967;51.154;13.812;2023-03-14T00:49:47;97394.00;;;12.00;95.46
39267;BME280;24967;51.154;13.812;2023-03-14T00:52:14;97408.28;;;12.12;94.98
39267;BME280;24967;51.154;13.812;2023-03-14T00:54:40;97410.25;;;11.72;96.93
39267;BME280;24967;51.154;13.812;2023-03-14T00:57:07;97403.84;;;11.99;96.01
39267;BME280;24967;51.154;13.812;2023-03-14T00:59:34;97403.38;;;12.09;95.25
39267;BME280;24967;51.154;13.812;2023-03-14T01:02:00;97413.84;;;12.04;95.34
39267;BME280;24967;51.154;13.812;2023-03-14T01:04:28;97420.03;;;11.84;96.02
39267;BME280;24967;51.154;13.812;2023-03-14T01:06:56;97429.69;;;11.85;95.96
39267;BME280;24967;51.154;13.812;2023-03-14T01:09:23;97413.91;;;11.84;97.10
39267;BME280;24967;51.154;13.812;2023-03-14T01:11:49;97408.94;;;12.07;95.63
39267;BME280;24967;51.154;13.812;2023-03-14T01:14:16;97411.41;;;12.02;95.34
39267;BME280;24967;51.154;13.812;2023-03-14T01:16:42;97404.50;;;11.81;96.78
39267;BME280;24967;51.154;13.812;2023-03-14T01:19:09;97403.59;;;11.36;100.00
39267;BME280;24967;51.154;13.812;2023-03-14T01:21:37;97394.59;;;11.30;100.00
39267;BME280;24967;51.154;13.812;2023-03-14T01:24:05;97380.06;;;11.33;100.00
39267;BME280;24967;51.154;13.812;2023-03-14T01:26:34;97378.44;;;11.25;100.00
39267;BME280;24967;51.154;13.812;2023-03-14T01:29:01;97380.66;;;11.28;100.00
39267;BME280;24967;51.154;13.812;2023-03-14T01:31:27;97401.16;;;11.21;100.00
39267;BME280;24967;51.154;13.812;2023-03-14T01:33:54;97395.22;;;11.19;100.00
39267;BME280;24967;51.154;13.812;2023-03-14T01:36:21;97398.53;;;11.08;100.00
39267;BME280;24967;51.154;13.812;2023-03-14T01:38:48;97386.66;;;11.17;100.00
39267;BME280;24967;51.154;13.812;2023-03-14T01:41:18;97386.84;;;11.09;100.00
39267;BME280;24967;51.154;13.812;2023-03-14T01:43:45;97379.47;;;11.24;100.00
39267;BME280;24967;51.154;13.812;2023-03-14T01:46:28;97386.59;;;11.37;100.00
39267;BME280;24967;51.154;13.812;2023-03-14T01:48:59;97382.91;;;11.44;99.89
39267;BME280;24967;51.154;13.812;2023-03-14T01:51:31;97387.44;;;11.31;100.00
39267;BME280;24967;51.154;13.812;2023-03-14T01:54:04;97387.63;;;11.36;100.00
39267;BME280;24967;51.154;13.812;2023-03-14T01:56:33;97382.97;;;11.11;100.00
39267;BME280;24967;51.154;13.812;2023-03-14T01:59:01;97374.75;;;11.26;100.00
39267;BME280;24967;51.154;13.812;2023-03-14T02:01:30;97382.88;;;11.51;99.20
39267;BME280;24967;51.154;13.812;2023-03-14T02:04:01;97383.25;;;11.61;97.89
39267;BME280;24967;51.154;13.812;2023-03-14T02:06:33;97386.34;;;11.52;98.68
39267;BME280;24967;51.154;13.812;2023-03-14T02:09:03;97376.34;;;11.40;99.11
39267;BME280;24967;51.154;13.812;2023-03-14T02:11:30;97371.66;;;11.42;98.46
39267;BME280;24967;51.154;13.812;2023-03-14T02:13:57;97368.97;;;11.49;98.70
39267;BME280;24967;51.154;13.812;2023-03-14T02:16:25;97368.38;;;11.47;97.91
39267;BME280;24967;51.154;13.812;2023-03-14T02:18:52;97351.81;;;11.38;97.89
39267;BME280;24967;51.154;13.812;2023-03-14T02:21:22;97359.75;;;11.52;96.42
39267;BME280;24967;51.154;13.812;2023-03-14T02:23:51;97353.66;;;11.44;96.74
39267;BME280;24967;51.154;13.812;2023-03-14T02:26:23;97357.94;;;11.39;97.06
39267;BME280;24967;51.154;13.812;2023-03-14T02:28:54;97352.81;;;11.37;96.60
39267;BME280;24967;51.154;13.812;2023-03-14T02:31:22;97345.47;;;11.33;96.86
39267;BME280;24967;51.154;13.812;2023-03-14T02:33:49;97338.09;;;11.41;93.96
39267;BME280;24967;51.154;13.812;2023-03-14T02:36:18;97342.78;;;11.46;93.80
39267;BME280;24967;51.154;13.812;2023-03-14T02:38:50;97327.03;;;11.44;91.75
39267;BME280;24967;51.154;13.812;2023-03-14T02:41:19;97335.63;;;11.40;92.15
39267;BME280;24967;51.154;13.812;2023-03-14T02:43:45;97339.09;;;11.40;91.00
39267;BME280;24967;51.154;13.812;2023-03-14T02:46:16;97344.78;;;11.57;90.17
39267;BME280;24967;51.154;13.812;2023-03-14T02:48:48;97345.19;;;11.61;90.34
39267;BME280;24967;51.154;13.812;2023-03-14T02:51:16;97342.19;;;11.44;90.60
39267;BME280;24967;51.154;13.812;2023-03-14T02:53:42;97342.13;;;11.57;89.64
39267;BME280;24967;51.154;13.812;2023-03-14T02:56:10;97346.00;;;11.61;87.81
39267;BME280;24967;51.154;13.812;2023-03-14T02:58:37;97351.56;;;11.53;88.36
39267;BME280;24967;51.154;13.812;2023-03-14T03:01:04;97347.84;;;11.61;88.17
39267;BME280;24967;51.154;13.812;2023-03-14T03:03:33;97340.34;;;11.44;86.37
39267;BME280;24967;51.154;13.812;2023-03-14T03:05:59;97333.56;;;11.49;85.41
39267;BME280;24967;51.154;13.812;2023-03-14T03:08:27;97338.28;;;11.53;83.39
39267;BME280;24967;51.154;13.812;2023-03-14T03:10:56;97324.47;;;11.69;82.99
39267;BME280;24967;51.154;13.812;2023-03-14T03:13:23;97332.47;;;11.69;82.25
39267;BME280;24967;51.154;13.812;2023-03-14T03:15:49;97333.84;;;11.79;82.53
39267;BME280;24967;51.154;13.812;2023-03-14T03:18:16;97340.84;;;11.73;82.05
39267;BME280;24967;51.154;13.812;2023-03-14T03:20:44;97329.19;;;11.67;81.96
39267;BME280;24967;51.154;13.812;2023-03-14T03:23:11;97322.84;;;11.68;81.21
39267;BME280;24967;51.154;13.812;2023-03-14T03:25:38;97323.00;;;11.74;79.53
39267;BME280;24967;51.154;13.812;2023-03-14T03:30:47;97329.34;;;11.86;78.89
39267;BME280;24967;51.154;13.812;2023-03-14T03:33:14;97325.06;;;11.78;78.90
39267;BME280;24967;51.154;13.812;2023-03-14T03:35:48;97328.28;;;11.94;78.21
39267;BME280;24967;51.154;13.812;2023-03-14T03:38:15;97327.25;;;12.01;77.78
39267;BME280;24967;51.154;13.812;2023-03-14T03:40:41;97328.31;;;11.87;77.05
39267;BME280;24967;51.154;13.812;2023-03-14T03:43:08;97331.75;;;11.94;76.76
39267;BME280;24967;51.154;13.812;2023-03-14T03:45:35;97343.78;;;12.03;76.62
39267;BME280;24967;51.154;13.812;2023-03-14T03:48:01;97350.00;;;11.84;76.40
39267;BME280;24967;51.154;13.812;2023-03-14T03:50:27;97344.91;;;11.76;76.87
39267;BME280;24967;51.154;13.812;2023-03-14T03:52:55;97328.91;;;11.89;77.59
39267;BME280;24967;51.154;13.812;2023-03-14T03:55:22;97329.91;;;11.95;77.02
39267;BME280;24967;51.154;13.812;2023-03-14T03:57:48;97324.84;;;11.80;76.41
39267;BME280;24967;51.154;13.812;2023-03-14T04:00:15;97320.94;;;11.82;77.10
39267;BME280;24967;51.154;13.812;2023-03-14T04:02:42;97335.69;;;11.85;76.71
39267;BME280;24967;51.154;13.812;2023-03-14T04:05:08;97331.38;;;11.84;76.19
39267;BME280;24967;51.154;13.812;2023-03-14T04:07:35;97321.22;;;11.61;76.94
39267;BME280;24967;51.154;13.812;2023-03-14T04:10:03;97321.81;;;11.69;76.73
39267;BME280;24967;51.154;13.812;2023-03-14T04:12:30;97324.53;;;11.56;75.94
39267;BME280;24967;51.154;13.812;2023-03-14T04:14:56;97321.19;;;11.67;76.22
39267;BME280;24967;51.154;13.812;2023-03-14T04:17:23;97329.22;;;11.61;76.56
39267;BME280;24967;51.154;13.812;2023-03-14T04:19:49;97320.84;;;11.57;75.80
39267;BME280;24967;51.154;13.812;2023-03-14T04:22:18;97314.31;;;11.53;76.18
39267;BME280;24967;51.154;13.812;2023-03-14T04:24:44;97312.06;;;11.57;75.81
39267;BME280;24967;51.154;13.812;2023-03-14T04:27:12;97306.94;;;11.55;75.51
39267;BME280;24967;51.154;13.812;2023-03-14T04:29:40;97305.28;;;11.61;76.17
39267;BME280;24967;51.154;13.812;2023-03-14T04:32:06;97317.78;;;11.54;75.95
39267;BME280;24967;51.154;13.812;2023-03-14T04:34:33;97294.59;;;11.67;75.69
39267;BME280;24967;51.154;13.812;2023-03-14T04:36:59;97294.22;;;11.57;75.06
39267;BME280;24967;51.154;13.812;2023-03-14T04:39:26;97290.97;;;11.55;74.64
39267;BME280;24967;51.154;13.812;2023-03-14T04:41:52;97294.31;;;11.44;74.67
39267;BME280;24967;51.154;13.812;2023-03-14T04:44:20;97291.34;;;11.59;74.33
39267;BME280;24967;51.154;13.812;2023-03-14T04:46:47;97286.44;;;11.56;73.54
39267;BME280;24967;51.154;13.812;2023-03-14T04:49:13;97295.31;;;11.43;75.01
39267;BME280;24967;51.154;13.812;2023-03-14T04:51:39;97285.88;;;11.54;73.28
39267;BME280;24967;51.154;13.812;2023-03-14T04:54:07;97287.09;;;11.51;73.80
39267;BME280;24967;51.154;13.812;2023-03-14T04:56:33;97268.50;;;11.44;73.73
39267;BME280;24967;51.154;13.812;2023-03-14T04:59:00;97279.13;;;11.51;73.72
39267;BME280;24967;51.154;13.812;2023-03-14T05:01:28;97278.97;;;11.39;74.40
39267;BME280;24967;51.154;13.812;2023-03-14T05:03:54;97288.94;;;11.51;73.83
39267;BME280;24967;51.154;13.812;2023-03-14T05:06:21;97286.50;;;11.42;74.04
39267;BME280;24967;51.154;13.812;2023-03-14T05:08:47;97274.44;;;11.40;74.04
39267;BME280;24967;51.154;13.812;2023-03-14T05:11:14;97256.03;;;11.45;74.41
39267;BME280;24967;51.154;13.812;2023-03-14T05:13:40;97264.34;;;11.62;72.88
39267;BME280;24967;51.154;13.812;2023-03-14T05:16:09;97260.50;;;11.51;73.31
39267;BME280;24967;51.154;13.812;2023-03-14T05:18:37;97271.94;;;11.52;73.27
39267;BME280;24967;51.154;13.812;2023-03-14T05:21:04;97278.28;;;11.57;72.96
39267;BME280;24967;51.154;13.812;2023-03-14T05:23:30;97285.44;;;11.57;73.13
39267;BME280;24967;51.154;13.812;2023-03-14T05:25:57;97283.78;;;11.56;72.24
39267;BME280;24967;51.154;13.812;2023-03-14T05:28:23;97278.84;;;11.66;71.94
39267;BME280;24967;51.154;13.812;2023-03-14T05:30:50;97289.81;;;11.38;73.36
39267;BME280;24967;51.154;13.812;2023-03-14T05:33:16;97288.75;;;11.45;73.55
39267;BME280;24967;51.154;13.812;2023-03-14T05:35:44;97299.38;;;11.52;73.03
39267;BME280;24967;51.154;13.812;2023-03-14T05:38:10;97283.63;;;11.51;72.77
39267;BME280;24967;51.154;13.812;2023-03-14T05:40:37;97289.59;;;11.39;72.83
39267;BME280;24967;51.154;13.812;2023-03-14T05:43:04;97284.22;;;11.53;73.19
39267;BME280;24967;51.154;13.812;2023-03-14T05:45:33;97292.97;;;11.66;72.79
39267;BME280;24967;51.154;13.812;2023-03-14T05:47:59;97282.97;;;11.55;72.39
39267;BME280;24967;51.154;13.812;2023-03-14T05:50:26;97273.34;;;11.61;72.54
39267;BME280;24967;51.154;13.812;2023-03-14T05:52:53;97278.56;;;11.81;72.15
39267;BME280;24967;51.154;13.812;2023-03-14T05:55:20;97277.75;;;11.87;72.32
39267;BME280;24967;51.154;13.812;2023-03-14T05:57:46;97268.09;;;11.93;70.97
39267;BME280;24967;51.154;13.812;2023-03-14T06:00:15;97275.47;;;11.84;71.63
39267;BME280;24967;51.154;13.812;2023-03-14T06:02:41;97272.41;;;11.87;71.14
39267;BME280;24967;51.154;13.812;2023-03-14T06:05:08;97276.28;;;11.84;71.67
39267;BME280;24967;51.154;13.812;2023-03-14T06:07:35;97280.19;;;11.82;72.21
39267;BME280;24967;51.154;13.812;2023-03-14T06:10:03;97282.09;;;11.75;71.87
39267;BME280;24967;51.154;13.812;2023-03-14T06:12:30;97288.63;;;11.72;71.37
39267;BME280;24967;51.154;13.812;2023-03-14T06:14:56;97294.44;;;11.62;71.91
39267;BME280;24967;51.154;13.812;2023-03-14T06:17:23;97301.94;;;11.72;71.62
39267;BME280;24967;51.154;13.812;2023-03-14T06:19:49;97301.13;;;11.72;71.47
39267;BME280;24967;51.154;13.812;2023-03-14T06:22:16;97290.84;;;11.82;71.51
39267;BME280;24967;51.154;13.812;2023-03-14T06:24:42;97304.56;;;11.85;71.00
39267;BME280;24967;51.154;13.812;2023-03-14T06:27:10;97301.91;;;11.79;72.15
39267;BME280;24967;51.154;13.812;2023-03-14T06:29:37;97304.16;;;11.82;71.11
39267;BME280;24967;51.154;13.812;2023-03-14T06:32:03;97309.75;;;11.67;71.50
39267;BME280;24967;51.154;13.812;2023-03-14T06:34:30;97302.53;;;11.81;72.00
39267;BME280;24967;51.154;13.812;2023-03-14T06:36:57;97314.69;;;11.63;72.48
39267;BME280;24967;51.154;13.812;2023-03-14T06:39:23;97311.53;;;11.86;71.49
39267;BME280;24967;51.154;13.812;2023-03-14T06:41:50;97312.34;;;11.87;71.33
39267;BME280;24967;51.154;13.812;2023-03-14T06:44:18;97323.38;;;11.90;71.71
39267;BME280;24967;51.154;13.812;2023-03-14T06:46:44;97325.00;;;11.91;71.29
39267;BME280;24967;51.154;13.812;2023-03-14T06:49:11;97330.09;;;12.00;71.60
39267;BME280;24967;51.154;13.812;2023-03-14T06:51:37;97325.09;;;12.10;71.58
39267;BME280;24967;51.154;13.812;2023-03-14T06:54:04;97319.81;;;12.03;71.82
39267;BME280;24967;51.154;13.812;2023-03-14T06:56:30;97332.59;;;11.88;72.38
39267;BME280;24967;51.154;13.812;2023-03-14T06:58:57;97331.72;;;12.07;71.19
39267;BME280;24967;51.154;13.812;2023-03-14T07:01:26;97324.16;;;11.98;70.62
39267;BME280;24967;51.154;13.812;2023-03-14T07:03:54;97335.09;;;11.76;70.96
39267;BME280;24967;51.154;13.812;2023-03-14T07:06:21;97326.81;;;11.98;71.42
39267;BME280;24967;51.154;13.812;2023-03-14T07:08:47;97326.00;;;11.97;70.38
39267;BME280;24967;51.154;13.812;2023-03-14T07:11:14;97324.47;;;12.14;71.01
39267;BME280;24967;51.154;13.812;2023-03-14T07:13:40;97318.28;;;12.21;70.42
39267;BME280;24967;51.154;13.812;2023-03-14T07:16:08;97324.34;;;12.03;70.37
39267;BME280;24967;51.154;13.812;2023-03-14T07:18:36;97328.69;;;12.29;70.67
39267;BME280;24967;51.154;13.812;2023-03-14T07:21:03;97328.63;;;12.10;70.94
39267;BME280;24967;51.154;13.812;2023-03-14T07:23:30;97333.53;;;12.07;70.59
39267;BME280;24967;51.154;13.812;2023-03-14T07:25:56;97333.50;;;12.13;69.87
39267;BME280;24967;51.154;13.812;2023-03-14T07:28:23;97346.69;;;12.02;71.12
39267;BME280;24967;51.154;13.812;2023-03-14T07:30:49;97346.47;;;12.03;71.04
39267;BME280;24967;51.154;13.812;2023-03-14T07:33:16;97341.06;;;12.17;70.74
39267;BME280;24967;51.154;13.812;2023-03-14T07:35:44;97339.47;;;12.09;70.38
39267;BME280;24967;51.154;13.812;2023-03-14T07:38:10;97345.38;;;12.18;69.69
39267;BME280;24967;51.154;13.812;2023-03-14T07:40:36;97344.38;;;12.12;70.48
39267;BME280;24967;51.154;13.812;2023-03-14T07:43:03;97333.38;;;12.02;70.18
39267;BME280;24967;51.154;13.812;2023-03-14T07:45:29;97330.53;;;11.97;70.65
39267;BME280;24967;51.154;13.812;2023-03-14T07:47:56;97335.91;;;11.83;70.57
39267;BME280;24967;51.154;13.812;2023-03-14T07:50:22;97331.09;;;12.05;70.85
39267;BME280;24967;51.154;13.812;2023-03-14T07:52:50;97339.69;;;12.07;69.87
39267;BME280;24967;51.154;13.812;2023-03-14T07:55:17;97335.41;;;12.00;70.75
39267;BME280;24967;51.154;13.812;2023-03-14T07:57:44;97330.66;;;12.08;70.47
39267;BME280;24967;51.154;13.812;2023-03-14T08:00:11;97330.84;;;12.13;70.33
39267;BME280;24967;51.154;13.812;2023-03-14T08:02:39;97333.50;;;12.13;70.81
39267;BME280;24967;51.154;13.812;2023-03-14T08:16:20;97311.94;;;11.25;77.31
39267;BME280;24967;51.154;13.812;2023-03-14T08:18:47;97284.78;;;11.68;74.16
39267;BME280;24967;51.154;13.812;2023-03-14T08:21:14;97299.53;;;12.09;73.39
39267;BME280;24967;51.154;13.812;2023-03-14T08:23:41;97301.44;;;12.27;71.10
39267;BME280;24967;51.154;13.812;2023-03-14T08:26:08;97291.59;;;12.27;70.39
39267;BME280;24967;51.154;13.812;2023-03-14T08:28:36;97318.06;;;12.22;70.07
39267;BME280;24967;51.154;13.812;2023-03-14T08:31:03;97304.63;;;12.42;69.42
39267;BME280;24967;51.154;13.812;2023-03-14T08:33:31;97314.16;;;12.56;69.30
39267;BME280;24967;51.154;13.812;2023-03-14T08:36:00;97300.91;;;12.43;69.79
39267;BME280;24967;51.154;13.812;2023-03-14T08:38:27;97304.94;;;12.52;69.38
39267;BME280;24967;51.154;13.812;2023-03-14T08:40:58;97305.91;;;12.58;69.58
39267;BME280;24967;51.154;13.812;2023-03-14T08:43:25;97301.63;;;12.82;67.45
39267;BME280;24967;51.154;13.812;2023-03-14T08:45:52;97303.97;;;12.72;67.14
39267;BME280;24967;51.154;13.812;2023-03-14T08:48:18;97306.81;;;12.77;67.41
39267;BME280;24967;51.154;13.812;2023-03-14T08:50:47;97310.28;;;12.77;67.85
39267;BME280;24967;51.154;13.812;2023-03-14T08:53:14;97314.72;;;12.58;68.15
39267;BME280;24967;51.154;13.812;2023-03-14T08:55:41;97308.50;;;12.71;66.09
39267;BME280;24967;51.154;13.812;2023-03-14T08:58:07;97302.75;;;12.68;66.13
39267;BME280;24967;51.154;13.812;2023-03-14T09:00:34;97303.53;;;12.75;66.61
39267;BME280;24967;51.154;13.812;2023-03-14T09:03:01;97313.28;;;12.63;65.65
39267;BME280;24967;51.154;13.812;2023-03-14T09:05:28;97320.78;;;12.72;65.84
39267;BME280;24967;51.154;13.812;2023-03-14T09:07:56;97328.91;;;12.52;66.11
39267;BME280;24967;51.154;13.812;2023-03-14T09:10:22;97318.00;;;12.60;65.94
39267;BME280;24967;51.154;13.812;2023-03-14T09:12:49;97320.22;;;12.64;65.65
39267;BME280;24967;51.154;13.812;2023-03-14T09:15:16;97311.59;;;12.68;64.11
39267;BME280;24967;51.154;13.812;2023-03-14T09:17:43;97305.97;;;12.76;64.14
39267;BME280;24967;51.154;13.812;2023-03-14T09:20:10;97300.84;;;13.00;65.00
39267;BME280;24967;51.154;13.812;2023-03-14T09:22:40;97310.06;;;13.22;64.35
39267;BME280;24967;51.154;13.812;2023-03-14T09:25:09;97311.44;;;13.06;64.31
39267;BME280;24967;51.154;13.812;2023-03-14T09:27:35;97312.09;;;13.02;64.63
39267;BME280;24967;51.154;13.812;2023-03-14T09:30:03;97315.56;;;12.84;64.14
39267;BME280;24967;51.154;13.812;2023-03-14T09:32:30;97313.97;;;13.01;64.32
39267;BME280;24967;51.154;13.812;2023-03-14T09:34:57;97322.69;;;12.90;64.11
39267;BME280;24967;51.154;13.812;2023-03-14T09:37:23;97326.63;;;13.06;64.94
39267;BME280;24967;51.154;13.812;2023-03-14T09:39:50;97327.84;;;13.10;63.27
39267;BME280;24967;51.154;13.812;2023-03-14T09:42:20;97329.97;;;13.01;64.25
39267;BME280;24967;51.154;13.812;2023-03-14T09:44:53;97330.72;;;13.09;63.70
39267;BME280;24967;51.154;13.812;2023-03-14T09:47:22;97325.41;;;13.27;63.59
39267;BME280;24967;51.154;13.812;2023-03-14T09:49:49;97325.09;;;13.17;63.97
39267;BME280;24967;51.154;13.812;2023-03-14T09:52:18;97332.81;;;13.25;64.21
39267;BME280;24967;51.154;13.812;2023-03-14T09:54:49;97331.81;;;13.44;63.96
39267;BME280;24967;51.154;13.812;2023-03-14T09:57:49;97334.16;;;13.34;62.53
39267;BME280;24967;51.154;13.812;2023-03-14T10:00:29;97333.06;;;13.42;63.83
39267;BME280;24967;51.154;13.812;2023-03-14T10:02:59;97333.06;;;13.60;63.16
39267;BME280;24967;51.154;13.812;2023-03-14T10:05:27;97334.56;;;13.38;63.28
39267;BME280;24967;51.154;13.812;2023-03-14T10:07:54;97343.91;;;13.47;63.67
39267;BME280;24967;51.154;13.812;2023-03-14T10:10:23;97337.19;;;13.19;62.50
39267;BME280;24967;51.154;13.812;2023-03-14T10:12:56;97345.63;;;13.16;61.99
39267;BME280;24967;51.154;13.812;2023-03-14T13:24:22;97240.00;;;14.71;58.77
39267;BME280;24967;51.154;13.812;2023-03-14T13:26:49;97235.94;;;14.80;57.79
39267;BME280;24967;51.154;13.812;2023-03-14T13:29:20;97226.97;;;14.75;57.59
39267;BME280;24967;51.154;13.812;2023-03-14T13:31:49;97227.28;;;14.43;58.41
39267;BME280;24967;51.154;13.812;2023-03-14T13:34:16;97225.53;;;14.49;58.44
39267;BME280;24967;51.154;13.812;2023-03-14T13:36:43;97221.72;;;14.44;58.76
39267;BME280;24967;51.154;13.812;2023-03-14T13:39:12;97215.22;;;14.64;58.85
39267;BME280;24967;51.154;13.812;2023-03-14T13:41:41;97217.31;;;14.50;57.91
39267;BME280;24967;51.154;13.812;2023-03-14T13:44:13;97213.16;;;14.66;57.85
39267;BME280;24967;51.154;13.812;2023-03-14T13:46:41;97218.97;;;14.63;58.82
39267;BME280;24967;51.154;13.812;2023-03-14T13:49:11;97215.22;;;14.64;57.90
39267;BME280;24967;51.154;13.812;2023-03-14T13:51:39;97208.84;;;14.53;58.43
39267;BME280;24967;51.154;13.812;2023-03-14T13:54:13;97210.94;;;14.51;58.05
39267;BME280;24967;51.154;13.812;2023-03-14T13:56:41;97210.09;;;14.51;57.50
39267;BME280;24967;51.154;13.812;2023-03-14T13:59:21;97199.53;;;14.79;57.68
39267;BME280;24967;51.154;13.812;2023-03-14T14:01:48;97203.25;;;14.90;57.29
39267;BME280;24967;51.154;13.812;2023-03-14T14:04:17;97211.53;;;14.65;57.83
39267;BME280;24967;51.154;13.812;2023-03-14T14:06:47;97207.28;;;14.46;57.58
39267;BME280;24967;51.154;13.812;2023-03-14T14:09:17;97208.25;;;14.63;58.53
39267;BME280;24967;51.154;13.812;2023-03-14T14:11:49;97205.84;;;14.61;56.88
39267;BME280;24967;51.154;13.812;2023-03-14T14:14:22;97205.22;;;14.48;57.67
39267;BME280;24967;51.154;13.812;2023-03-14T14:16:50;97203.91;;;14.27;58.20
39267;BME280;24967;51.154;13.812;2023-03-14T14:19:19;97193.00;;;14.28;58.28
39267;BME280;24967;51.154;13.812;2023-03-14T14:21:47;97198.00;;;14.36;58.51
39267;BME280;24967;51.154;13.812;2023-03-14T14:24:15;97193.25;;;14.38;57.64
39267;BME280;24967;51.154;13.812;2023-03-14T14:26:50;97190.13;;;14.53;57.43
39267;BME280;24967;51.154;13.812;2023-03-14T14:29:25;97194.84;;;14.39;57.46
39267;BME280;24967;51.154;13.812;2023-03-14T14:32:00;97196.63;;;14.57;57.30
39267;BME280;24967;51.154;13.812;2023-03-14T14:34:27;97193.69;;;14.94;56.58
39267;BME280;24967;51.154;13.812;2023-03-14T14:36:54;97177.78;;;15.28;55.69
39267;BME280;24967;51.154;13.812;2023-03-14T14:39:21;97200.91;;;14.82;55.84
39267;BME280;24967;51.154;13.812;2023-03-14T14:41:52;97190.94;;;14.65;55.69
39267;BME280;24967;51.154;13.812;2023-03-14T14:44:28;97198.03;;;14.60;56.04
39267;BME280;24967;51.154;13.812;2023-03-14T14:46:55;97185.81;;;14.76;55.81
39267;BME280;24967;51.154;13.812;2023-03-14T14:49:28;97186.84;;;14.86;55.22
39267;BME280;24967;51.154;13.812;2023-03-14T14:52:01;97178.91;;;14.92;55.46
39267;BME280;24967;51.154;13.812;2023-03-14T14:54:34;97185.31;;;14.91;55.78
39267;BME280;24967;51.154;13.812;2023-03-14T14:57:06;97166.09;;;15.05;55.26
39267;BME280;24967;51.154;13.812;2023-03-14T14:59:41;97176.50;;;15.30;54.43
39267;BME280;24967;51.154;13.812;2023-03-14T15:02:26;97170.69;;;15.22;55.27
39267;BME280;24967;51.154;13.812;2023-03-14T15:04:53;97183.28;;;15.21;53.92
39267;BME280;24967;51.154;13.812;2023-03-14T15:07:20;97178.41;;;15.18;54.39
39267;BME280;24967;51.154;13.812;2023-03-14T15:09:47;97173.22;;;15.40;54.74
39267;BME280;24967;51.154;13.812;2023-03-14T15:12:15;97174.31;;;15.56;54.59
39267;BME280;24967;51.154;13.812;2023-03-14T15:14:41;97177.53;;;15.58;54.00
39267;BME280;24967;51.154;13.812;2023-03-14T15:17:09;97176.41;;;15.54;53.95
39267;BME280;24967;51.154;13.812;2023-03-14T15:19:37;97176.00;;;15.33;53.63
39267;BME280;24967;51.154;13.812;2023-03-14T15:22:09;97178.94;;;15.32;53.68
39267;BME280;24967;51.154;13.812;2023-03-14T15:24:38;97187.16;;;15.14;54.12
39267;BME280;24967;51.154;13.812;2023-03-14T15:27:05;97191.16;;;14.64;54.85
39267;BME280;24967;51.154;13.812;2023-03-14T15:29:33;97195.78;;;14.45;55.49
39267;BME280;24967;51.154;13.812;2023-03-14T15:31:59;97195.00;;;14.44;56.14
39267;BME280;24967;51.154;13.812;2023-03-14T15:34:26;97191.16;;;14.40;56.64
39267;BME280;24967;51.154;13.812;2023-03-14T15:36:53;97210.47;;;14.54;56.94
39267;BME280;24967;51.154;13.812;2023-03-14T15:39:19;97197.75;;;14.26;56.98
39267;BME280;24967;51.154;13.812;2023-03-14T15:41:46;97204.25;;;14.18;57.80
39267;BME280;24967;51.154;13.812;2023-03-14T15:44:12;97198.81;;;14.13;58.32
39267;BME280;24967;51.154;13.812;2023-03-14T15:46:40;97192.06;;;14.11;58.10
39267;BME280;24967;51.154;13.812;2023-03-14T15:49:08;97200.84;;;14.00;58.33
39267;BME280;24967;51.154;13.812;2023-03-14T15:51:34;97201.44;;;14.02;58.52
39267;BME280;24967;51.154;13.812;2023-03-14T15:54:00;97205.53;;;14.04;58.57
39267;BME280;24967;51.154;13.812;2023-03-14T15:56:27;97209.03;;;14.16;58.37
39267;BME280;24967;51.154;13.812;2023-03-14T15:58:56;97208.31;;;14.09;58.29
39267;BME280;24967;51.154;13.812;2023-03-14T16:01:22;97208.97;;;13.93;58.79
39267;BME280;24967;51.154;13.812;2023-03-14T16:03:50;97219.03;;;13.79;59.45
39267;BME280;24967;51.154;13.812;2023-03-14T16:06:18;97225.28;;;13.73;59.72
39267;BME280;24967;51.154;13.812;2023-03-14T16:08:45;97223.34;;;13.80;60.07
39267;BME280;24967;51.154;13.812;2023-03-14T16:11:12;97216.75;;;13.64;60.48
39267;BME280;24967;51.154;13.812;2023-03-14T16:13:40;97225.19;;;13.49;61.11
39267;BME280;24967;51.154;13.812;2023-03-14T16:16:08;97226.91;;;13.44;60.87